sensor_id;sensor_type;location;lat;lon;timestamp;temperature;humidity
54178;DHT22;40085;53.004;6.770;2023-08-08T00:02:05;13.10;97.30
54178;DHT22;40085;53.004;6.770;2023-08-08T00:04:31;13.10;97.80
54178;DHT22;40085;53.004;6.770;2023-08-08T00:06:57;13.10;98.10
54178;DHT22;40085;53.004;6.770;2023-08-08T00:09:22;13.10;97.60
54178;DHT22;40085;53.004;6.770;2023-08-08T00:11:48;13.10;98.80
54178;DHT22;40085;53.004;6.770;2023-08-08T00:14:14;13.10;99.10
54178;DHT22;40085;53.004;6.770;2023-08-08T00:16:40;13.10;99.20
54178;DHT22;40085;53.004;6.770;2023-08-08T00:19:05;13.10;98.90
54178;DHT22;40085;53.004;6.770;2023-08-08T00:21:31;13.10;99.90
54178;DHT22;40085;53.004;6.770;2023-08-08T00:23:57;13.10;99.80
54178;DHT22;40085;53.004;6.770;2023-08-08T00:26:22;13.10;99.90
54178;DHT22;40085;53.004;6.770;2023-08-08T00:28:48;13.10;99.90
54178;DHT22;40085;53.004;6.770;2023-08-08T00:31:13;13.10;99.90
54178;DHT22;40085;53.004;6.770;2023-08-08T00:33:42;13.30;99.90
54178;DHT22;40085;53.004;6.770;2023-08-08T00:36:07;13.00;99.90
54178;DHT22;40085;53.004;6.770;2023-08-08T00:38:33;13.20;99.90
54178;DHT22;40085;53.004;6.770;2023-08-08T00:40:59;13.20;99.90
54178;DHT22;40085;53.004;6.770;2023-08-08T00:43:24;13.20;99.90
54178;DHT22;40085;53.004;6.770;2023-08-08T00:45:50;13.30;99.90
54178;DHT22;40085;53.004;6.770;2023-08-08T00:48:15;13.40;99.90
54178;DHT22;40085;53.004;6.770;2023-08-08T00:50:43;13.40;99.90
54178;DHT22;40085;53.004;6.770;2023-08-08T00:53:12;13.40;99.90
54178;DHT22;40085;53.004;6.770;2023-08-08T00:55:38;13.20;99.90
54178;DHT22;40085;53.004;6.770;2023-08-08T00:58:04;13.60;99.90
54178;DHT22;40085;53.004;6.770;2023-08-08T01:00:30;13.20;99.90
54178;DHT22;40085;53.004;6.770;2023-08-08T01:02:55;13.60;99.90
54178;DHT22;40085;53.004;6.770;2023-08-08T01:05:21;13.70;99.90
54178;DHT22;40085;53.004;6.770;2023-08-08T01:07:57;13.50;99.90
54178;DHT22;40085;53.004;6.770;2023-08-08T01:10:28;13.50;99.90
54178;DHT22;40085;53.004;6.770;2023-08-08T01:12:58;13.50;99.90
54178;DHT22;40085;53.004;6.770;2023-08-08T01:15:25;13.50;99.90
54178;DHT22;40085;53.004;6.770;2023-08-08T01:17:51;13.50;99.90
54178;DHT22;40085;53.004;6.770;2023-08-08T01:20:18;13.60;99.90
54178;DHT22;40085;53.004;6.770;2023-08-08T01:23:17;13.50;99.90
54178;DHT22;40085;53.004;6.770;2023-08-08T01:25:44;13.60;99.90
54178;DHT22;40085;53.004;6.770;2023-08-08T01:28:11;13.90;99.90
54178;DHT22;40085;53.004;6.770;2023-08-08T01:30:36;13.50;99.90
54178;DHT22;40085;53.004;6.770;2023-08-08T01:33:03;13.60;99.90
54178;DHT22;40085;53.004;6.770;2023-08-08T01:35:31;13.50;99.90
54178;DHT22;40085;53.004;6.770;2023-08-08T01:38:08;13.50;99.90
54178;DHT22;40085;53.004;6.770;2023-08-08T01:40:36;14.10;99.90
54178;DHT22;40085;53.004;6.770;2023-08-08T01:43:04;13.40;99.90
54178;DHT22;40085;53.004;6.770;2023-08-08T01:45:30;13.50;99.90
54178;DHT22;40085;53.004;6.770;2023-08-08T01:47:55;13.50;99.90
54178;DHT22;40085;53.004;6.770;2023-08-08T01:50:21;14.10;99.90
54178;DHT22;40085;53.004;6.770;2023-08-08T01:52:47;13.50;99.90
54178;DHT22;40085;53.004;6.770;2023-08-08T01:55:13;13.20;99.90
54178;DHT22;40085;53.004;6.770;2023-08-08T01:57:39;13.80;99.90
54178;DHT22;40085;53.004;6.770;2023-08-08T02:00:06;13.50;99.90
54178;DHT22;40085;53.004;6.770;2023-08-08T02:02:32;13.50;99.90
54178;DHT22;40085;53.004;6.770;2023-08-08T02:04:58;13.40;99.90
54178;DHT22;40085;53.004;6.770;2023-08-08T02:07:23;13.50;99.90
54178;DHT22;40085;53.004;6.770;2023-08-08T02:09:49;13.50;99.90
54178;DHT22;40085;53.004;6.770;2023-08-08T02:12:16;13.20;99.90
54178;DHT22;40085;53.004;6.770;2023-08-08T02:14:42;13.50;99.90
54178;DHT22;40085;53.004;6.770;2023-08-08T02:17:07;12.90;99.90
54178;DHT22;40085;53.004;6.770;2023-08-08T02:19:33;13.10;99.90
54178;DHT22;40085;53.004;6.770;2023-08-08T02:21:58;13.40;99.90
54178;DHT22;40085;53.004;6.770;2023-08-08T02:24:24;14.10;99.90
54178;DHT22;40085;53.004;6.770;2023-08-08T02:26:50;13.40;99.90
54178;DHT22;40085;53.004;6.770;2023-08-08T02:29:15;13.50;99.90
54178;DHT22;40085;53.004;6.770;2023-08-08T02:31:41;13.50;99.90
54178;DHT22;40085;53.004;6.770;2023-08-08T02:34:06;13.50;99.90
54178;DHT22;40085;53.004;6.770;2023-08-08T02:36:32;13.50;99.90
54178;DHT22;40085;53.004;6.770;2023-08-08T02:38:58;13.50;99.90
54178;DHT22;40085;53.004;6.770;2023-08-08T02:41:24;13.70;99.90
54178;DHT22;40085;53.004;6.770;2023-08-08T02:43:50;13.50;99.90
54178;DHT22;40085;53.004;6.770;2023-08-08T02:46:15;14.00;99.90
54178;DHT22;40085;53.004;6.770;2023-08-08T02:48:41;13.90;99.90
54178;DHT22;40085;53.004;6.770;2023-08-08T02:51:07;13.50;99.90
54178;DHT22;40085;53.004;6.770;2023-08-08T02:53:32;13.40;99.90
54178;DHT22;40085;53.004;6.770;2023-08-08T02:55:58;13.50;99.90
54178;DHT22;40085;53.004;6.770;2023-08-08T02:58:23;13.30;99.90
54178;DHT22;40085;53.004;6.770;2023-08-08T03:00:49;13.50;99.90
54178;DHT22;40085;53.004;6.770;2023-08-08T03:03:14;13.50;99.90
54178;DHT22;40085;53.004;6.770;2023-08-08T03:05:40;13.50;99.90
54178;DHT22;40085;53.004;6.770;2023-08-08T03:08:06;13.40;99.90
54178;DHT22;40085;53.004;6.770;2023-08-08T03:10:31;13.40;99.90
54178;DHT22;40085;53.004;6.770;2023-08-08T03:12:57;13.50;99.90
54178;DHT22;40085;53.004;6.770;2023-08-08T03:15:23;13.50;99.90
54178;DHT22;40085;53.004;6.770;2023-08-08T03:17:48;13.50;99.90
54178;DHT22;40085;53.004;6.770;2023-08-08T03:20:14;13.50;99.90
54178;DHT22;40085;53.004;6.770;2023-08-08T03:22:40;13.50;99.90
54178;DHT22;40085;53.004;6.770;2023-08-08T03:25:06;13.40;99.90
54178;DHT22;40085;53.004;6.770;2023-08-08T03:27:32;13.50;99.90
54178;DHT22;40085;53.004;6.770;2023-08-08T03:29:57;13.90;99.90
54178;DHT22;40085;53.004;6.770;2023-08-08T03:32:23;13.50;99.90
54178;DHT22;40085;53.004;6.770;2023-08-08T03:34:49;13.80;99.90
54178;DHT22;40085;53.004;6.770;2023-08-08T03:37:14;13.50;99.90
54178;DHT22;40085;53.004;6.770;2023-08-08T03:39:40;13.50;99.90
54178;DHT22;40085;53.004;6.770;2023-08-08T03:42:06;13.60;99.90
54178;DHT22;40085;53.004;6.770;2023-08-08T03:44:32;13.60;99.90
54178;DHT22;40085;53.004;6.770;2023-08-08T03:46:57;13.50;99.90
54178;DHT22;40085;53.004;6.770;2023-08-08T03:49:23;13.50;99.90
54178;DHT22;40085;53.004;6.770;2023-08-08T03:51:49;13.30;99.90
54178;DHT22;40085;53.004;6.770;2023-08-08T03:54:14;13.50;99.90
54178;DHT22;40085;53.004;6.770;2023-08-08T03:56:41;13.50;99.90
54178;DHT22;40085;53.004;6.770;2023-08-08T03:59:06;13.50;99.90
54178;DHT22;40085;53.004;6.770;2023-08-08T04:01:32;13.40;99.90
54178;DHT22;40085;53.004;6.770;2023-08-08T04:03:58;13.40;99.90
54178;DHT22;40085;53.004;6.770;2023-08-08T04:06:24;13.40;99.90
54178;DHT22;40085;53.004;6.770;2023-08-08T04:08:50;13.40;99.90
54178;DHT22;40085;53.004;6.770;2023-08-08T04:11:16;13.40;99.90
54178;DHT22;40085;53.004;6.770;2023-08-08T04:13:41;13.40;99.90
54178;DHT22;40085;53.004;6.770;2023-08-08T04:16:07;13.40;99.90
54178;DHT22;40085;53.004;6.770;2023-08-08T04:18:33;13.40;99.90
54178;DHT22;40085;53.004;6.770;2023-08-08T04:20:58;13.40;99.90
54178;DHT22;40085;53.004;6.770;2023-08-08T04:23:24;14.00;99.90
54178;DHT22;40085;53.004;6.770;2023-08-08T04:25:52;13.40;99.90
54178;DHT22;40085;53.004;6.770;2023-08-08T04:28:17;13.20;99.90
54178;DHT22;40085;53.004;6.770;2023-08-08T04:30:43;13.30;99.90
54178;DHT22;40085;53.004;6.770;2023-08-08T04:33:09;14.00;99.90
54178;DHT22;40085;53.004;6.770;2023-08-08T04:35:35;13.30;99.90
54178;DHT22;40085;53.004;6.770;2023-08-08T04:38:01;13.30;99.90
54178;DHT22;40085;53.004;6.770;2023-08-08T04:40:26;13.30;99.90
54178;DHT22;40085;53.004;6.770;2023-08-08T04:42:52;13.30;99.90
54178;DHT22;40085;53.004;6.770;2023-08-08T04:45:18;13.50;99.90
54178;DHT22;40085;53.004;6.770;2023-08-08T04:47:44;13.40;99.90
54178;DHT22;40085;53.004;6.770;2023-08-08T04:50:10;14.10;99.90
54178;DHT22;40085;53.004;6.770;2023-08-08T04:52:35;13.30;99.90
54178;DHT22;40085;53.004;6.770;2023-08-08T04:55:01;13.30;99.90
54178;DHT22;40085;53.004;6.770;2023-08-08T04:57:27;13.40;99.90
54178;DHT22;40085;53.004;6.770;2023-08-08T04:59:52;13.90;99.90
54178;DHT22;40085;53.004;6.770;2023-08-08T05:02:18;13.40;99.90
54178;DHT22;40085;53.004;6.770;2023-08-08T05:04:43;13.60;99.90
54178;DHT22;40085;53.004;6.770;2023-08-08T05:07:09;13.80;99.90
54178;DHT22;40085;53.004;6.770;2023-08-08T05:09:34;13.20;99.90
54178;DHT22;40085;53.004;6.770;2023-08-08T05:12:00;13.30;99.90
54178;DHT22;40085;53.004;6.770;2023-08-08T05:14:26;13.30;99.90
54178;DHT22;40085;53.004;6.770;2023-08-08T05:16:52;13.30;99.90
54178;DHT22;40085;53.004;6.770;2023-08-08T05:19:17;13.30;99.90
54178;DHT22;40085;53.004;6.770;2023-08-08T05:21:43;13.30;99.90
54178;DHT22;40085;53.004;6.770;2023-08-08T05:24:08;13.30;99.90
54178;DHT22;40085;53.004;6.770;2023-08-08T05:26:34;13.20;99.90
54178;DHT22;40085;53.004;6.770;2023-08-08T05:28:59;13.30;99.90
54178;DHT22;40085;53.004;6.770;2023-08-08T05:31:25;13.40;99.90
54178;DHT22;40085;53.004;6.770;2023-08-08T05:33:51;13.40;99.90
54178;DHT22;40085;53.004;6.770;2023-08-08T05:36:16;13.50;99.90
54178;DHT22;40085;53.004;6.770;2023-08-08T05:38:42;13.30;99.90
54178;DHT22;40085;53.004;6.770;2023-08-08T05:41:08;13.50;99.90
54178;DHT22;40085;53.004;6.770;2023-08-08T05:43:34;13.70;99.90
54178;DHT22;40085;53.004;6.770;2023-08-08T05:45:59;13.70;99.90
54178;DHT22;40085;53.004;6.770;2023-08-08T05:48:25;13.80;99.90
54178;DHT22;40085;53.004;6.770;2023-08-08T05:50:50;13.80;99.90
54178;DHT22;40085;53.004;6.770;2023-08-08T05:53:16;13.90;99.90
54178;DHT22;40085;53.004;6.770;2023-08-08T05:55:42;13.90;99.90
54178;DHT22;40085;53.004;6.770;2023-08-08T05:58:08;13.70;99.90
54178;DHT22;40085;53.004;6.770;2023-08-08T06:00:34;14.20;99.90
54178;DHT22;40085;53.004;6.770;2023-08-08T06:03:00;14.20;99.90
54178;DHT22;40085;53.004;6.770;2023-08-08T06:05:26;14.10;99.90
54178;DHT22;40085;53.004;6.770;2023-08-08T06:07:51;14.20;99.90
54178;DHT22;40085;53.004;6.770;2023-08-08T06:10:17;14.40;99.90
54178;DHT22;40085;53.004;6.770;2023-08-08T06:12:43;14.50;99.90
54178;DHT22;40085;53.004;6.770;2023-08-08T06:15:08;14.50;99.90
54178;DHT22;40085;53.004;6.770;2023-08-08T06:17:34;14.60;99.90
54178;DHT22;40085;53.004;6.770;2023-08-08T06:20:00;14.70;99.90
54178;DHT22;40085;53.004;6.770;2023-08-08T06:22:25;15.20;99.90
54178;DHT22;40085;53.004;6.770;2023-08-08T06:24:51;14.70;99.90
54178;DHT22;40085;53.004;6.770;2023-08-08T06:27:17;15.00;99.90
54178;DHT22;40085;53.004;6.770;2023-08-08T06:29:43;14.90;99.90
54178;DHT22;40085;53.004;6.770;2023-08-08T06:32:09;15.10;99.90
54178;DHT22;40085;53.004;6.770;2023-08-08T06:34:34;14.80;99.90
54178;DHT22;40085;53.004;6.770;2023-08-08T06:37:00;15.10;99.90
54178;DHT22;40085;53.004;6.770;2023-08-08T06:39:25;15.10;99.90
54178;DHT22;40085;53.004;6.770;2023-08-08T06:41:51;15.20;99.90
54178;DHT22;40085;53.004;6.770;2023-08-08T06:44:17;15.20;99.90
54178;DHT22;40085;53.004;6.770;2023-08-08T06:46:42;15.10;99.90
54178;DHT22;40085;53.004;6.770;2023-08-08T06:49:08;15.90;99.90
54178;DHT22;40085;53.004;6.770;2023-08-08T06:51:35;15.50;99.90
54178;DHT22;40085;53.004;6.770;2023-08-08T06:54:00;15.50;99.90
54178;DHT22;40085;53.004;6.770;2023-08-08T06:56:26;15.60;99.90
54178;DHT22;40085;53.004;6.770;2023-08-08T06:58:53;15.70;99.90
54178;DHT22;40085;53.004;6.770;2023-08-08T07:01:19;15.60;99.90
54178;DHT22;40085;53.004;6.770;2023-08-08T07:03:45;16.00;99.90
54178;DHT22;40085;53.004;6.770;2023-08-08T07:06:12;16.20;99.90
54178;DHT22;40085;53.004;6.770;2023-08-08T07:08:38;15.90;99.90
54178;DHT22;40085;53.004;6.770;2023-08-08T07:11:06;15.90;99.90
54178;DHT22;40085;53.004;6.770;2023-08-08T07:15:58;16.10;99.90
54178;DHT22;40085;53.004;6.770;2023-08-08T07:18:23;16.20;99.90
54178;DHT22;40085;53.004;6.770;2023-08-08T07:20:49;16.30;99.90
54178;DHT22;40085;53.004;6.770;2023-08-08T07:23:15;16.30;99.90
54178;DHT22;40085;53.004;6.770;2023-08-08T07:25:42;16.80;99.00
54178;DHT22;40085;53.004;6.770;2023-08-08T07:28:07;16.50;96.40
54178;DHT22;40085;53.004;6.770;2023-08-08T07:30:34;16.50;99.20
54178;DHT22;40085;53.004;6.770;2023-08-08T07:33:00;16.60;96.80
54178;DHT22;40085;53.004;6.770;2023-08-08T07:35:25;17.00;91.40
54178;DHT22;40085;53.004;6.770;2023-08-08T07:37:51;16.60;95.10
54178;DHT22;40085;53.004;6.770;2023-08-08T07:40:18;16.80;91.20
54178;DHT22;40085;53.004;6.770;2023-08-08T07:42:45;17.00;78.60
54178;DHT22;40085;53.004;6.770;2023-08-08T07:45:11;17.10;92.30
54178;DHT22;40085;53.004;6.770;2023-08-08T07:47:36;17.10;90.50
54178;DHT22;40085;53.004;6.770;2023-08-08T07:50:02;17.10;55.40
54178;DHT22;40085;53.004;6.770;2023-08-08T07:52:28;17.00;74.30
54178;DHT22;40085;53.004;6.770;2023-08-08T07:54:53;17.00;64.30
54178;DHT22;40085;53.004;6.770;2023-08-08T07:57:19;17.00;99.90
54178;DHT22;40085;53.004;6.770;2023-08-08T07:59:44;17.00;99.20
54178;DHT22;40085;53.004;6.770;2023-08-08T08:02:10;17.00;99.90
54178;DHT22;40085;53.004;6.770;2023-08-08T08:04:36;17.30;1.00
54178;DHT22;40085;53.004;6.770;2023-08-08T08:07:01;16.70;99.90
54178;DHT22;40085;53.004;6.770;2023-08-08T08:09:28;17.00;99.90
54178;DHT22;40085;53.004;6.770;2023-08-08T08:11:53;17.30;99.90
54178;DHT22;40085;53.004;6.770;2023-08-08T08:14:19;17.70;22.50
54178;DHT22;40085;53.004;6.770;2023-08-08T08:16:46;17.20;99.90
54178;DHT22;40085;53.004;6.770;2023-08-08T08:19:11;17.20;99.90
54178;DHT22;40085;53.004;6.770;2023-08-08T08:21:37;17.30;99.90
54178;DHT22;40085;53.004;6.770;2023-08-08T08:24:03;17.60;41.50
54178;DHT22;40085;53.004;6.770;2023-08-08T08:26:29;17.30;93.30
54178;DHT22;40085;53.004;6.770;2023-08-08T08:28:54;17.20;99.90
54178;DHT22;40085;53.004;6.770;2023-08-08T08:31:20;17.10;99.90
54178;DHT22;40085;53.004;6.770;2023-08-08T08:33:46;17.30;1.00
54178;DHT22;40085;53.004;6.770;2023-08-08T08:36:12;17.30;1.00
54178;DHT22;40085;53.004;6.770;2023-08-08T08:38:37;17.40;1.00
54178;DHT22;40085;53.004;6.770;2023-08-08T08:41:04;17.50;1.00
54178;DHT22;40085;53.004;6.770;2023-08-08T08:43:31;17.40;1.00
54178;DHT22;40085;53.004;6.770;2023-08-08T08:46:00;17.50;99.90
54178;DHT22;40085;53.004;6.770;2023-08-08T08:48:26;17.50;99.90
54178;DHT22;40085;53.004;6.770;2023-08-08T08:50:52;18.10;99.90
54178;DHT22;40085;53.004;6.770;2023-08-08T08:53:18;17.90;1.00
54178;DHT22;40085;53.004;6.770;2023-08-08T08:55:44;17.10;99.90
54178;DHT22;40085;53.004;6.770;2023-08-08T08:58:11;17.40;99.90
54178;DHT22;40085;53.004;6.770;2023-08-08T09:00:39;17.00;99.90
54178;DHT22;40085;53.004;6.770;2023-08-08T09:03:05;16.70;99.90
54178;DHT22;40085;53.004;6.770;2023-08-08T09:05:31;17.40;1.00
54178;DHT22;40085;53.004;6.770;2023-08-08T09:07:58;17.30;99.90
54178;DHT22;40085;53.004;6.770;2023-08-08T09:10:24;16.30;1.00
54178;DHT22;40085;53.004;6.770;2023-08-08T09:12:50;16.30;25.20
54178;DHT22;40085;53.004;6.770;2023-08-08T09:15:15;16.20;1.00
54178;DHT22;40085;53.004;6.770;2023-08-08T09:17:42;16.10;5.70
54178;DHT22;40085;53.004;6.770;2023-08-08T09:20:09;16.30;35.50
54178;DHT22;40085;53.004;6.770;2023-08-08T09:22:37;16.30;48.00
54178;DHT22;40085;53.004;6.770;2023-08-08T09:25:03;16.30;51.20
54178;DHT22;40085;53.004;6.770;2023-08-08T09:27:29;16.50;62.20
54178;DHT22;40085;53.004;6.770;2023-08-08T09:29:54;16.70;42.20
54178;DHT22;40085;53.004;6.770;2023-08-08T09:32:20;17.20;26.80
54178;DHT22;40085;53.004;6.770;2023-08-08T09:34:46;16.50;35.20
54178;DHT22;40085;53.004;6.770;2023-08-08T09:37:11;16.50;24.70
54178;DHT22;40085;53.004;6.770;2023-08-08T09:39:37;16.40;24.80
54178;DHT22;40085;53.004;6.770;2023-08-08T09:42:03;16.10;26.10
54178;DHT22;40085;53.004;6.770;2023-08-08T09:44:32;16.10;30.20
54178;DHT22;40085;53.004;6.770;2023-08-08T09:47:00;15.90;44.40
54178;DHT22;40085;53.004;6.770;2023-08-08T09:49:27;16.20;51.10
54178;DHT22;40085;53.004;6.770;2023-08-08T09:51:54;16.20;36.20
54178;DHT22;40085;53.004;6.770;2023-08-08T09:54:20;16.60;59.50
54178;DHT22;40085;53.004;6.770;2023-08-08T09:56:48;16.50;54.20
54178;DHT22;40085;53.004;6.770;2023-08-08T09:59:14;17.30;1.00
54178;DHT22;40085;53.004;6.770;2023-08-08T10:04:08;17.20;1.00
54178;DHT22;40085;53.004;6.770;2023-08-08T10:06:33;17.80;1.00
54178;DHT22;40085;53.004;6.770;2023-08-08T10:09:00;17.70;1.00
54178;DHT22;40085;53.004;6.770;2023-08-08T10:11:27;17.70;1.00
54178;DHT22;40085;53.004;6.770;2023-08-08T10:13:54;17.70;1.00
54178;DHT22;40085;53.004;6.770;2023-08-08T10:16:19;17.60;99.90
54178;DHT22;40085;53.004;6.770;2023-08-08T10:18:55;17.60;1.00
54178;DHT22;40085;53.004;6.770;2023-08-08T10:21:25;17.80;99.90
54178;DHT22;40085;53.004;6.770;2023-08-08T10:33:49;17.50;1.00
54178;DHT22;40085;53.004;6.770;2023-08-08T10:36:15;18.10;99.90
54178;DHT22;40085;53.004;6.770;2023-08-08T10:41:14;17.40;99.90
54178;DHT22;40085;53.004;6.770;2023-08-08T10:43:52;17.40;99.90
54178;DHT22;40085;53.004;6.770;2023-08-08T10:46:29;18.20;99.90
54178;DHT22;40085;53.004;6.770;2023-08-08T10:49:00;17.70;1.00
54178;DHT22;40085;53.004;6.770;2023-08-08T10:51:53;17.80;1.00
54178;DHT22;40085;53.004;6.770;2023-08-08T10:54:24;18.00;55.80
54178;DHT22;40085;53.004;6.770;2023-08-08T10:56:57;17.90;99.90
54178;DHT22;40085;53.004;6.770;2023-08-08T10:59:27;18.20;99.90
54178;DHT22;40085;53.004;6.770;2023-08-08T11:01:55;18.20;99.90
54178;DHT22;40085;53.004;6.770;2023-08-08T11:04:23;19.20;99.90
54178;DHT22;40085;53.004;6.770;2023-08-08T11:09:16;17.80;99.90
54178;DHT22;40085;53.004;6.770;2023-08-08T11:11:44;17.90;99.90
54178;DHT22;40085;53.004;6.770;2023-08-08T11:14:28;17.70;1.00
54178;DHT22;40085;53.004;6.770;2023-08-08T11:16:53;17.50;99.90
54178;DHT22;40085;53.004;6.770;2023-08-08T11:19:19;17.60;99.90
54178;DHT22;40085;53.004;6.770;2023-08-08T11:21:46;17.50;99.90
54178;DHT22;40085;53.004;6.770;2023-08-08T11:24:12;17.40;30.00
54178;DHT22;40085;53.004;6.770;2023-08-08T11:26:40;18.10;24.70
54178;DHT22;40085;53.004;6.770;2023-08-08T11:29:06;17.20;1.00
54178;DHT22;40085;53.004;6.770;2023-08-08T11:31:34;17.20;35.80
54178;DHT22;40085;53.004;6.770;2023-08-08T11:34:00;17.00;35.00
54178;DHT22;40085;53.004;6.770;2023-08-08T11:36:30;17.70;3.40
54178;DHT22;40085;53.004;6.770;2023-08-08T11:38:57;17.30;2.60
54178;DHT22;40085;53.004;6.770;2023-08-08T11:41:24;17.70;1.00
54178;DHT22;40085;53.004;6.770;2023-08-08T11:43:52;17.70;1.00
54178;DHT22;40085;53.004;6.770;2023-08-08T11:46:22;17.90;1.00
54178;DHT22;40085;53.004;6.770;2023-08-08T11:48:48;18.00;1.00
54178;DHT22;40085;53.004;6.770;2023-08-08T11:51:15;17.90;1.00
54178;DHT22;40085;53.004;6.770;2023-08-08T11:53:49;17.70;99.90
54178;DHT22;40085;53.004;6.770;2023-08-08T11:56:17;17.80;99.90
54178;DHT22;40085;53.004;6.770;2023-08-08T11:58:43;18.00;99.90
54178;DHT22;40085;53.004;6.770;2023-08-08T12:01:09;18.60;99.90
54178;DHT22;40085;53.004;6.770;2023-08-08T12:03:35;18.40;99.90
54178;DHT22;40085;53.004;6.770;2023-08-08T12:06:17;18.40;99.90
54178;DHT22;40085;53.004;6.770;2023-08-08T12:08:44;18.60;99.90
54178;DHT22;40085;53.004;6.770;2023-08-08T12:11:11;18.60;99.90
54178;DHT22;40085;53.004;6.770;2023-08-08T12:13:38;18.30;99.90
54178;DHT22;40085;53.004;6.770;2023-08-08T12:16:13;18.40;99.90
54178;DHT22;40085;53.004;6.770;2023-08-08T12:18:40;18.50;99.90
54178;DHT22;40085;53.004;6.770;2023-08-08T12:21:07;18.60;99.90
54178;DHT22;40085;53.004;6.770;2023-08-08T12:23:33;18.60;99.90
54178;DHT22;40085;53.004;6.770;2023-08-08T12:25:59;18.70;99.90
54178;DHT22;40085;53.004;6.770;2023-08-08T12:28:26;18.90;99.90
54178;DHT22;40085;53.004;6.770;2023-08-08T12:30:52;18.90;99.90
54178;DHT22;40085;53.004;6.770;2023-08-08T12:33:17;19.00;99.90
54178;DHT22;40085;53.004;6.770;2023-08-08T12:35:43;19.10;1.00
54178;DHT22;40085;53.004;6.770;2023-08-08T12:38:09;19.60;1.00
54178;DHT22;40085;53.004;6.770;2023-08-08T12:40:35;19.40;1.00
54178;DHT22;40085;53.004;6.770;2023-08-08T12:43:01;19.70;1.00
54178;DHT22;40085;53.004;6.770;2023-08-08T12:45:27;18.90;1.00
54178;DHT22;40085;53.004;6.770;2023-08-08T12:47:52;19.30;1.00
54178;DHT22;40085;53.004;6.770;2023-08-08T12:50:18;18.80;99.90
54178;DHT22;40085;53.004;6.770;2023-08-08T12:52:43;18.10;99.90
54178;DHT22;40085;53.004;6.770;2023-08-08T12:55:09;18.10;99.90
54178;DHT22;40085;53.004;6.770;2023-08-08T12:57:37;18.10;99.90
54178;DHT22;40085;53.004;6.770;2023-08-08T13:00:04;18.00;99.90
54178;DHT22;40085;53.004;6.770;2023-08-08T13:02:30;18.20;99.90
54178;DHT22;40085;53.004;6.770;2023-08-08T13:04:55;18.20;99.90
54178;DHT22;40085;53.004;6.770;2023-08-08T13:07:21;18.30;99.90
54178;DHT22;40085;53.004;6.770;2023-08-08T13:09:46;18.70;99.90
54178;DHT22;40085;53.004;6.770;2023-08-08T13:12:12;18.80;99.90
54178;DHT22;40085;53.004;6.770;2023-08-08T13:14:37;18.80;99.90
54178;DHT22;40085;53.004;6.770;2023-08-08T13:17:03;18.70;99.90
54178;DHT22;40085;53.004;6.770;2023-08-08T13:19:29;18.50;99.90
54178;DHT22;40085;53.004;6.770;2023-08-08T13:21:55;18.40;99.90
54178;DHT22;40085;53.004;6.770;2023-08-08T13:24:21;18.10;99.90
54178;DHT22;40085;53.004;6.770;2023-08-08T13:26:50;17.90;99.90
54178;DHT22;40085;53.004;6.770;2023-08-08T13:29:16;17.80;99.90
54178;DHT22;40085;53.004;6.770;2023-08-08T13:31:42;17.60;99.90
54178;DHT22;40085;53.004;6.770;2023-08-08T13:34:07;17.50;99.90
54178;DHT22;40085;53.004;6.770;2023-08-08T13:36:33;17.50;99.90
54178;DHT22;40085;53.004;6.770;2023-08-08T13:38:58;17.70;99.90
54178;DHT22;40085;53.004;6.770;2023-08-08T13:41:25;18.00;99.90
54178;DHT22;40085;53.004;6.770;2023-08-08T13:43:50;18.30;99.90
54178;DHT22;40085;53.004;6.770;2023-08-08T13:46:16;18.20;99.90
54178;DHT22;40085;53.004;6.770;2023-08-08T13:48:42;18.10;99.90
54178;DHT22;40085;53.004;6.770;2023-08-08T13:51:07;18.90;99.90
54178;DHT22;40085;53.004;6.770;2023-08-08T13:53:33;18.10;99.90
54178;DHT22;40085;53.004;6.770;2023-08-08T13:55:59;18.30;99.90
54178;DHT22;40085;53.004;6.770;2023-08-08T13:58:25;18.30;99.90
54178;DHT22;40085;53.004;6.770;2023-08-08T14:00:51;18.60;99.90
54178;DHT22;40085;53.004;6.770;2023-08-08T14:03:17;18.90;99.90
54178;DHT22;40085;53.004;6.770;2023-08-08T14:05:43;19.00;99.90
54178;DHT22;40085;53.004;6.770;2023-08-08T14:08:09;18.80;99.90
54178;DHT22;40085;53.004;6.770;2023-08-08T14:10:35;18.40;99.90
54178;DHT22;40085;53.004;6.770;2023-08-08T14:13:01;18.60;99.90
54178;DHT22;40085;53.004;6.770;2023-08-08T14:15:27;18.30;99.90
54178;DHT22;40085;53.004;6.770;2023-08-08T14:17:54;18.30;99.90
54178;DHT22;40085;53.004;6.770;2023-08-08T14:20:19;18.20;99.90
54178;DHT22;40085;53.004;6.770;2023-08-08T14:22:46;18.20;99.90
54178;DHT22;40085;53.004;6.770;2023-08-08T14:25:12;18.60;99.90
54178;DHT22;40085;53.004;6.770;2023-08-08T14:27:38;18.10;99.90
54178;DHT22;40085;53.004;6.770;2023-08-08T14:30:04;18.20;99.90
54178;DHT22;40085;53.004;6.770;2023-08-08T14:32:30;18.30;99.90
54178;DHT22;40085;53.004;6.770;2023-08-08T14:34:56;18.20;99.90
54178;DHT22;40085;53.004;6.770;2023-08-08T14:37:21;18.40;99.90
54178;DHT22;40085;53.004;6.770;2023-08-08T14:39:47;18.40;99.90
54178;DHT22;40085;53.004;6.770;2023-08-08T14:42:13;18.50;99.90
54178;DHT22;40085;53.004;6.770;2023-08-08T14:44:38;18.50;99.90
54178;DHT22;40085;53.004;6.770;2023-08-08T14:47:04;18.60;99.90
54178;DHT22;40085;53.004;6.770;2023-08-08T14:49:30;18.80;99.90
54178;DHT22;40085;53.004;6.770;2023-08-08T14:51:56;18.90;99.90
54178;DHT22;40085;53.004;6.770;2023-08-08T14:54:21;19.10;99.90
54178;DHT22;40085;53.004;6.770;2023-08-08T14:56:47;18.90;99.90
54178;DHT22;40085;53.004;6.770;2023-08-08T14:59:13;18.60;99.90
54178;DHT22;40085;53.004;6.770;2023-08-08T15:01:38;18.60;99.90
54178;DHT22;40085;53.004;6.770;2023-08-08T15:04:04;18.30;99.90
54178;DHT22;40085;53.004;6.770;2023-08-08T15:06:31;18.10;99.90
54178;DHT22;40085;53.004;6.770;2023-08-08T15:08:57;18.60;99.90
54178;DHT22;40085;53.004;6.770;2023-08-08T15:11:23;18.30;99.90
54178;DHT22;40085;53.004;6.770;2023-08-08T15:13:48;18.80;99.90
54178;DHT22;40085;53.004;6.770;2023-08-08T15:16:14;18.60;99.90
54178;DHT22;40085;53.004;6.770;2023-08-08T15:18:40;18.00;99.90
54178;DHT22;40085;53.004;6.770;2023-08-08T15:21:06;18.20;99.90
54178;DHT22;40085;53.004;6.770;2023-08-08T15:23:31;18.20;99.90
54178;DHT22;40085;53.004;6.770;2023-08-08T15:25:59;18.50;99.90
54178;DHT22;40085;53.004;6.770;2023-08-08T15:28:25;18.60;99.90
54178;DHT22;40085;53.004;6.770;2023-08-08T15:30:51;18.60;99.90
54178;DHT22;40085;53.004;6.770;2023-08-08T15:33:16;18.80;99.90
54178;DHT22;40085;53.004;6.770;2023-08-08T15:35:42;18.80;99.90
54178;DHT22;40085;53.004;6.770;2023-08-08T15:38:09;19.00;99.90
54178;DHT22;40085;53.004;6.770;2023-08-08T15:40:35;18.90;99.90
54178;DHT22;40085;53.004;6.770;2023-08-08T15:43:00;18.90;99.90
54178;DHT22;40085;53.004;6.770;2023-08-08T15:45:26;18.80;99.90
54178;DHT22;40085;53.004;6.770;2023-08-08T15:47:52;18.80;99.90